createdAt,value
2022-12-09T00:01:14.161Z,30.27
2022-12-09T00:05:17.544Z,40.93
2022-12-09T00:09:20.586Z,33.97
2022-12-09T00:13:24.839Z,29.50
2022-12-09T00:17:27.702Z,31.13
2022-12-09T00:21:31.950Z,29.07
2022-12-09T00:25:34.700Z,40.50
2022-12-09T00:29:38.884Z,43.77
2022-12-09T00:33:41.667Z,35.60
2022-12-09T00:37:46.268Z,30.80
2022-12-09T00:41:52.183Z,33.50
2022-12-09T00:45:56.534Z,37.70
2022-12-09T00:49:59.292Z,29.47
2022-12-09T00:54:04.095Z,32.63
2022-12-09T00:58:07.020Z,37.57
2022-12-09T01:02:11.542Z,33.10
2022-12-09T01:06:18.219Z,36.50
2022-12-09T01:10:22.438Z,32.53
2022-12-09T01:14:25.337Z,33.97
2022-12-09T01:18:29.666Z,27.70
2022-12-09T01:22:32.682Z,32.97
2022-12-09T01:26:35.686Z,28.87
2022-12-09T01:30:38.637Z,26.77
2022-12-09T01:34:45.086Z,28.27
2022-12-09T01:38:48.583Z,30.40
2022-12-09T01:42:51.577Z,29.80
2022-12-09T01:47:00.295Z,30.73
2022-12-09T01:51:11.858Z,35.43
2022-12-09T01:55:15.594Z,29.50
2022-12-09T01:59:18.804Z,29.47
2022-12-09T02:03:22.255Z,30.07
2022-12-09T02:07:28.197Z,27.10
2022-12-09T02:11:46.388Z,25.27
2022-12-09T02:15:57.158Z,25.47
2022-12-09T02:20:09.847Z,27.27
2022-12-09T02:24:21.258Z,26.90
2022-12-09T02:28:47.731Z,27.23
2022-12-09T02:33:13.634Z,32.83
2022-12-09T02:37:22.024Z,25.50
2022-12-09T02:41:34.028Z,37.57
2022-12-09T02:45:40.842Z,28.07
2022-12-09T02:49:45.505Z,27.70
2022-12-09T02:53:54.356Z,30.00
2022-12-09T02:58:01.259Z,40.77
2022-12-09T03:02:19.327Z,42.77
2022-12-09T03:06:29.009Z,38.17
2022-12-09T03:10:38.544Z,39.73
2022-12-09T03:14:44.850Z,31.77
2022-12-09T03:18:51.754Z,44.37
2022-12-09T03:22:57.127Z,30.53
2022-12-09T03:27:07.033Z,33.90
2022-12-09T03:31:14.841Z,33.43
2022-12-09T03:35:22.755Z,38.50
2022-12-09T03:39:29.221Z,28.53
2022-12-09T03:43:39.973Z,33.70
2022-12-09T03:47:43.112Z,32.37
2022-12-09T03:51:50.485Z,44.53
2022-12-09T03:56:00.616Z,33.70
2022-12-09T04:00:07.181Z,33.87
2022-12-09T04:04:16.173Z,31.10
2022-12-09T04:08:19.143Z,34.23
2022-12-09T04:12:21.894Z,36.70
2022-12-09T04:16:26.269Z,36.30
2022-12-09T04:20:29.085Z,41.83
2022-12-09T04:24:31.899Z,43.40
2022-12-09T04:28:34.691Z,51.40
2022-12-09T04:32:38.923Z,38.90
2022-12-09T04:36:41.840Z,44.97
2022-12-09T04:40:44.846Z,33.87
2022-12-09T04:44:48.093Z,36.03
2022-12-09T04:48:52.688Z,43.87
2022-12-09T04:52:55.972Z,36.30
2022-12-09T04:56:59.037Z,32.43
2022-12-09T05:01:06.968Z,34.90
2022-12-09T05:05:12.371Z,35.13
2022-12-09T05:09:15.299Z,38.03
2022-12-09T05:13:18.844Z,37.10
2022-12-09T05:17:21.886Z,33.97
2022-12-09T05:21:26.461Z,36.90
2022-12-09T05:25:29.827Z,34.13
2022-12-09T05:29:32.647Z,44.03
2022-12-09T05:33:36.087Z,40.97
2022-12-09T05:37:40.651Z,38.50
2022-12-09T05:41:44.558Z,39.57
2022-12-09T05:45:47.445Z,42.70
2022-12-09T05:49:50.420Z,43.67
2022-12-09T05:53:55.895Z,46.27
2022-12-09T05:57:59.116Z,36.53
2022-12-09T06:02:06.908Z,38.80
2022-12-09T06:06:14.875Z,37.27
2022-12-09T06:10:19.807Z,34.73
2022-12-09T06:14:23.068Z,35.47
2022-12-09T06:18:26.025Z,39.00
2022-12-09T06:22:29.262Z,37.97
2022-12-09T06:26:33.801Z,38.03
2022-12-09T06:30:37.756Z,38.47
2022-12-09T06:34:40.751Z,34.60
2022-12-09T06:38:43.888Z,36.47
2022-12-09T06:42:50.546Z,31.23
2022-12-09T06:46:53.797Z,35.27
2022-12-09T06:50:57.408Z,31.27
2022-12-09T06:55:00.886Z,33.67
2022-12-09T06:59:09.485Z,33.50
2022-12-09T07:03:13.793Z,29.50
2022-12-09T07:07:16.908Z,33.13
2022-12-09T07:11:20.132Z,35.70
2022-12-09T07:15:24.717Z,35.53
2022-12-09T07:19:27.697Z,41.63
2022-12-09T07:23:30.714Z,40.00
2022-12-09T07:27:33.861Z,41.03
2022-12-09T07:31:38.370Z,53.83
2022-12-09T07:35:41.568Z,36.83
2022-12-09T07:39:44.828Z,45.57
2022-12-09T07:43:49.191Z,42.10
2022-12-09T07:47:53.805Z,49.37
2022-12-09T07:51:56.842Z,41.67
2022-12-09T07:56:03.512Z,50.57
2022-12-09T08:00:08.761Z,41.90
2022-12-09T08:04:16.313Z,42.67
2022-12-09T08:08:19.988Z,46.27
2022-12-09T08:12:23.083Z,41.33
2022-12-09T08:16:26.810Z,42.57
2022-12-09T08:20:31.773Z,43.13
2022-12-09T08:24:35.394Z,48.13
2022-12-09T08:28:38.723Z,38.53
2022-12-09T08:32:41.756Z,36.63
2022-12-09T08:36:46.496Z,48.20
2022-12-09T08:40:49.426Z,48.03
2022-12-09T08:44:57.122Z,43.13
2022-12-09T08:49:05.403Z,46.23
2022-12-09T08:53:09.971Z,45.03
2022-12-09T08:57:12.996Z,45.33
2022-12-09T09:01:17.274Z,59.97
2022-12-09T09:05:20.877Z,42.27
2022-12-09T09:09:25.389Z,44.17
2022-12-09T09:13:28.631Z,54.33
2022-12-09T09:17:31.681Z,47.37
2022-12-09T09:21:35.712Z,52.60
2022-12-09T09:25:45.539Z,41.23
2022-12-09T09:29:48.381Z,48.50
2022-12-09T09:33:51.907Z,50.97
2022-12-09T09:37:56.128Z,53.10
2022-12-09T09:42:08.149Z,41.97
2022-12-09T09:46:19.893Z,54.37
2022-12-09T09:50:36.042Z,42.53
2022-12-09T09:54:39.403Z,50.73
2022-12-09T09:58:50.328Z,51.60
2022-12-09T10:03:02.460Z,51.00
2022-12-09T10:07:14.401Z,52.23
2022-12-09T10:11:26.134Z,43.93
2022-12-09T10:15:34.655Z,52.97
2022-12-09T10:19:42.051Z,48.47
2022-12-09T10:23:47.269Z,50.07
2022-12-09T10:27:57.544Z,45.80
2022-12-09T10:32:01.807Z,51.07
2022-12-09T10:36:05.758Z,48.10
2022-12-09T10:40:24.881Z,48.00
2022-12-09T10:44:29.679Z,47.47
2022-12-09T10:48:37.681Z,46.10
2022-12-09T10:52:45.357Z,38.90
2022-12-09T10:57:02.890Z,35.93
2022-12-09T11:01:09.554Z,31.93
2022-12-09T11:05:25.784Z,36.10
2022-12-09T11:09:31.015Z,31.27
2022-12-09T11:13:42.008Z,33.93
2022-12-09T11:17:57.694Z,38.63
2022-12-09T11:22:21.595Z,34.63
2022-12-09T11:26:32.378Z,33.97
2022-12-09T11:30:47.152Z,38.90
2022-12-09T11:35:01.148Z,34.67
2022-12-09T11:39:26.260Z,33.37
2022-12-09T11:43:35.307Z,32.47
2022-12-09T11:48:20.337Z,31.77
2022-12-09T11:52:22.462Z,33.33
2022-12-09T11:56:27.888Z,32.03
2022-12-09T12:00:37.365Z,32.23
2022-12-09T12:04:52.776Z,32.07
2022-12-09T12:09:02.041Z,31.37
2022-12-09T12:13:13.791Z,31.97
2022-12-09T12:17:20.771Z,30.63
2022-12-09T12:21:47.591Z,30.97
2022-12-09T12:26:00.509Z,32.73
2022-12-09T12:30:09.403Z,30.03
2022-12-09T12:34:24.996Z,31.93
2022-12-09T12:38:38.970Z,37.80
2022-12-09T12:43:07.116Z,35.30
2022-12-09T12:47:19.123Z,36.77
2022-12-09T12:51:31.909Z,38.27
2022-12-09T12:55:48.961Z,30.73
2022-12-09T13:00:02.454Z,35.37
2022-12-09T13:04:21.514Z,32.13
2022-12-09T13:08:30.957Z,28.37
2022-12-09T13:12:51.546Z,33.57
2022-12-09T13:16:54.684Z,35.97
2022-12-09T13:21:00.039Z,35.43
2022-12-09T13:25:15.988Z,35.77
2022-12-09T13:29:31.052Z,40.57
2022-12-09T13:33:45.880Z,36.70
2022-12-09T13:38:01.005Z,35.50
2022-12-09T13:42:21.350Z,35.60
2022-12-09T13:46:25.933Z,36.20
2022-12-09T13:50:34.674Z,38.47
2022-12-09T13:54:48.973Z,31.23
2022-12-09T13:59:25.103Z,36.93
2022-12-09T14:03:32.044Z,33.50
2022-12-09T14:07:41.746Z,31.53
2022-12-09T14:11:48.798Z,32.23
2022-12-09T14:16:23.956Z,28.67
2022-12-09T14:20:32.581Z,29.27
2022-12-09T14:24:36.621Z,31.60
2022-12-09T14:28:53.848Z,33.27
2022-12-09T14:32:57.574Z,29.90
2022-12-09T14:37:12.572Z,32.07
2022-12-09T14:41:26.545Z,29.53
2022-12-09T14:45:37.231Z,34.00
2022-12-09T14:49:48.488Z,30.17
2022-12-09T14:53:56.295Z,36.87
2022-12-09T14:58:01.869Z,35.30
2022-12-09T15:02:21.005Z,33.77
2022-12-09T15:06:26.789Z,33.93
2022-12-09T15:10:36.216Z,32.73
2022-12-09T15:14:39.910Z,29.97
2022-12-09T15:18:46.186Z,34.63
2022-12-09T15:22:53.025Z,25.97
2022-12-09T15:27:00.392Z,27.50
2022-12-09T15:31:18.263Z,23.57
2022-12-09T15:35:25.764Z,30.20
2022-12-09T15:39:31.742Z,40.57
2022-12-09T15:43:37.394Z,36.73
2022-12-09T15:47:43.662Z,34.70
2022-12-09T15:51:49.874Z,27.43
2022-12-09T15:55:57.827Z,27.93
2022-12-09T16:00:00.641Z,26.70
2022-12-09T16:04:06.272Z,29.30
2022-12-09T16:08:11.411Z,34.53
2022-12-09T16:12:32.381Z,30.30
2022-12-09T16:16:42.561Z,29.07
2022-12-09T16:21:01.176Z,32.43
2022-12-09T16:25:21.223Z,32.83
2022-12-09T16:29:27.396Z,38.97
2022-12-09T16:33:35.043Z,33.20
2022-12-09T16:37:40.536Z,32.80
2022-12-09T16:42:00.652Z,34.00
2022-12-09T16:46:37.275Z,35.10
2022-12-09T16:50:43.660Z,29.63
2022-12-09T16:54:47.930Z,31.50
2022-12-09T16:58:52.961Z,37.10
2022-12-09T17:03:00.791Z,35.47
2022-12-09T17:07:03.494Z,33.87
2022-12-09T17:11:06.514Z,30.47
2022-12-09T17:15:14.593Z,31.90
2022-12-09T17:19:17.777Z,27.77
2022-12-09T17:23:20.592Z,34.23
2022-12-09T17:27:23.410Z,32.67
2022-12-09T17:31:28.054Z,29.53
2022-12-09T17:35:33.694Z,26.53
2022-12-09T17:39:36.594Z,26.93
2022-12-09T17:43:39.399Z,30.73
2022-12-09T17:47:43.491Z,29.43
2022-12-09T17:51:46.635Z,26.07
2022-12-09T17:55:49.571Z,26.13
2022-12-09T17:59:52.291Z,28.53
2022-12-09T18:04:04.381Z,26.80
2022-12-09T18:08:10.616Z,28.63
2022-12-09T18:12:13.385Z,33.67
2022-12-09T18:16:16.717Z,35.60
2022-12-09T18:20:21.074Z,31.73
2022-12-09T18:24:24.131Z,37.73
2022-12-09T18:28:27.649Z,41.83
2022-12-09T18:32:36.005Z,30.37
2022-12-09T18:36:40.617Z,37.37
2022-12-09T18:41:00.955Z,40.97
2022-12-09T18:45:03.807Z,44.17
2022-12-09T18:49:08.965Z,43.87
2022-12-09T18:53:13.047Z,40.87
2022-12-09T18:57:15.874Z,40.27
2022-12-09T19:01:21.430Z,37.13
2022-12-09T19:05:26.201Z,33.23
2022-12-09T19:09:34.621Z,38.00
2022-12-09T19:13:37.817Z,35.27
2022-12-09T19:17:42.506Z,38.30
2022-12-09T19:21:46.659Z,47.33
2022-12-09T19:25:50.725Z,46.30
2022-12-09T19:29:53.711Z,49.60
2022-12-09T19:33:57.442Z,45.70
2022-12-09T19:38:01.519Z,48.67
2022-12-09T19:42:06.080Z,47.10
2022-12-09T19:46:11.013Z,38.73
2022-12-09T19:50:13.810Z,40.47
2022-12-09T19:54:17.357Z,39.10
2022-12-09T19:58:22.839Z,37.47
2022-12-09T20:02:26.982Z,48.10
2022-12-09T20:06:30.541Z,52.37
2022-12-09T20:10:34.242Z,47.17
2022-12-09T20:14:40.648Z,44.80
2022-12-09T20:18:43.844Z,42.87
2022-12-09T20:22:46.647Z,46.07
2022-12-09T20:26:49.455Z,46.37
2022-12-09T20:30:53.564Z,43.77
2022-12-09T20:34:56.376Z,49.40
2022-12-09T20:39:00.467Z,64.53
2022-12-09T20:43:03.213Z,55.23
2022-12-09T20:47:07.344Z,46.23
2022-12-09T20:51:13.914Z,46.27
2022-12-09T20:55:16.809Z,49.13
2022-12-09T20:59:19.662Z,47.30
2022-12-09T21:03:23.958Z,41.30
2022-12-09T21:07:26.720Z,39.17
2022-12-09T21:11:29.582Z,41.30
2022-12-09T21:15:32.413Z,44.10
2022-12-09T21:19:36.798Z,39.10
2022-12-09T21:23:39.843Z,40.27
2022-12-09T21:27:42.593Z,42.43
2022-12-09T21:31:48.083Z,43.30
2022-12-09T21:35:52.233Z,46.97
2022-12-09T21:39:55.069Z,53.40
2022-12-09T21:43:58.423Z,51.47
2022-12-09T21:48:01.970Z,54.77
2022-12-09T21:52:07.149Z,56.93
2022-12-09T21:56:14.112Z,56.83
2022-12-09T22:00:17.626Z,56.77
2022-12-09T22:04:20.432Z,50.90
2022-12-09T22:08:24.540Z,54.97
2022-12-09T22:12:27.330Z,50.10
2022-12-09T22:16:32.268Z,59.23
2022-12-09T22:25:08.431Z,60.93
2022-12-09T22:29:12.389Z,58.63
2022-12-09T22:33:15.099Z,55.33
2022-12-09T22:37:42.600Z,52.10
2022-12-09T22:41:43.793Z,51.20
2022-12-09T22:45:46.642Z,50.30
2022-12-09T22:49:49.513Z,47.57
2022-12-09T22:53:54.089Z,46.83
2022-12-09T22:57:58.210Z,52.90
2022-12-09T23:02:01.302Z,56.37
2022-12-09T23:06:04.143Z,56.37
2022-12-09T23:10:07.800Z,57.80
2022-12-09T23:14:12.063Z,56.87
2022-12-09T23:18:14.777Z,59.23
2022-12-09T23:22:18.654Z,56.37
2022-12-09T23:26:26.823Z,48.27
2022-12-09T23:30:31.156Z,53.23
2022-12-09T23:34:33.888Z,50.87
2022-12-09T23:38:36.900Z,48.07
2022-12-09T23:42:39.611Z,48.10
2022-12-09T23:46:44.147Z,50.77
2022-12-09T23:50:46.907Z,52.63
2022-12-09T23:54:49.632Z,58.17
2022-12-09T23:58:55.144Z,52.30
